sensor_id;sensor_type;location;lat;lon;timestamp;pressure;altitude;pressure_sealevel;temperature;humidity
21877;BME280;11103;43.788;23.710;2022-09-13T00:00:39;150183.03;;;15.05;100.00
21877;BME280;11103;43.788;23.710;2022-09-13T00:03:06;150139.34;;;14.88;100.00
21877;BME280;11103;43.788;23.710;2022-09-13T00:05:35;150167.59;;;14.99;100.00
21877;BME280;11103;43.788;23.710;2022-09-13T00:08:01;150134.22;;;14.86;100.00
21877;BME280;11103;43.788;23.710;2022-09-13T00:10:27;150165.00;;;14.98;100.00
21877;BME280;11103;43.788;23.710;2022-09-13T00:12:53;150090.53;;;14.69;100.00
21877;BME280;11103;43.788;23.710;2022-09-13T00:15:19;150134.22;;;14.86;100.00
21877;BME280;11103;43.788;23.710;2022-09-13T00:17:45;149275.25;;;14.86;100.00
21877;BME280;11103;43.788;23.710;2022-09-13T00:20:10;148464.19;;;14.86;100.00
21877;BME280;11103;43.788;23.710;2022-09-13T00:22:36;146551.72;;;14.66;100.00
21877;BME280;11103;43.788;23.710;2022-09-13T00:25:05;148149.44;;;14.85;100.00
21877;BME280;11103;43.788;23.710;2022-09-13T00:27:32;146401.16;;;14.84;100.00
21877;BME280;11103;43.788;23.710;2022-09-13T00:29:58;146962.63;;;14.78;100.00
21877;BME280;11103;43.788;23.710;2022-09-13T00:32:24;141025.50;;;14.77;100.00
21877;BME280;11103;43.788;23.710;2022-09-13T00:34:49;141569.19;;;14.78;100.00
21877;BME280;11103;43.788;23.710;2022-09-13T00:37:14;134902.78;;;14.78;100.00
21877;BME280;11103;43.788;23.710;2022-09-13T00:39:40;129789.34;;;14.52;100.00
21877;BME280;11103;43.788;23.710;2022-09-13T00:42:11;130517.63;;;14.77;100.00
21877;BME280;11103;43.788;23.710;2022-09-13T00:44:58;144170.00;;;14.69;100.00
21877;BME280;11103;43.788;23.710;2022-09-13T00:52:34;138320.25;;;14.23;100.00
21877;BME280;11103;43.788;23.710;2022-09-13T00:55:31;128385.47;;;14.26;100.00
21877;BME280;11103;43.788;23.710;2022-09-13T00:57:57;120318.81;;;14.25;100.00
21877;BME280;11103;43.788;23.710;2022-09-13T01:00:24;115956.66;;;14.25;100.00
21877;BME280;11103;43.788;23.710;2022-09-13T01:02:57;122672.47;;;14.27;100.00
21877;BME280;11103;43.788;23.710;2022-09-13T01:05:29;124697.09;;;14.31;100.00
21877;BME280;11103;43.788;23.710;2022-09-13T01:07:57;118970.22;;;14.22;100.00
21877;BME280;11103;43.788;23.710;2022-09-13T01:10:24;113599.88;;;14.19;100.00
21877;BME280;11103;43.788;23.710;2022-09-13T01:13:14;103903.50;;;14.22;100.00
21877;BME280;11103;43.788;23.710;2022-09-13T01:15:41;104252.84;;;14.31;100.00
21877;BME280;11103;43.788;23.710;2022-09-13T01:18:07;101231.78;;;14.22;100.00
21877;BME280;11103;43.788;23.710;2022-09-13T01:32:15;94533.75;;;14.05;100.00
21877;BME280;11103;43.788;23.710;2022-09-13T01:45:27;78272.41;;;14.22;100.00
21877;BME280;11103;43.788;23.710;2022-09-13T01:48:34;95225.41;;;14.21;100.00
21877;BME280;11103;43.788;23.710;2022-09-13T01:51:22;94891.34;;;14.20;100.00
21877;BME280;11103;43.788;23.710;2022-09-13T02:02:02;95548.00;;;14.14;100.00
21877;BME280;11103;43.788;23.710;2022-09-13T02:04:34;101219.63;;;14.15;100.00
21877;BME280;11103;43.788;23.710;2022-09-13T02:07:09;101220.47;;;14.16;100.00
21877;BME280;11103;43.788;23.710;2022-09-13T02:09:41;112919.28;;;14.14;100.00
21877;BME280;11103;43.788;23.710;2022-09-13T02:12:35;110563.38;;;14.07;100.00
21877;BME280;11103;43.788;23.710;2022-09-13T02:15:12;111236.56;;;14.09;100.00
21877;BME280;11103;43.788;23.710;2022-09-13T02:17:43;112548.66;;;13.95;100.00
21877;BME280;11103;43.788;23.710;2022-09-13T02:20:22;115913.91;;;14.03;100.00
21877;BME280;11103;43.788;23.710;2022-09-13T02:22:56;108215.09;;;14.04;100.00
21877;BME280;11103;43.788;23.710;2022-09-13T02:25:24;101838.28;;;13.87;100.00
21877;BME280;11103;43.788;23.710;2022-09-13T02:27:53;97856.31;;;13.99;100.00
21877;BME280;11103;43.788;23.710;2022-09-13T02:30:23;100171.88;;;13.88;100.00
21877;BME280;11103;43.788;23.710;2022-09-13T02:35:19;97844.50;;;13.92;100.00
21877;BME280;11103;43.788;23.710;2022-09-13T02:37:50;94507.72;;;13.89;100.00
21877;BME280;11103;43.788;23.710;2022-09-13T02:40:22;102157.06;;;13.79;100.00
21877;BME280;11103;43.788;23.710;2022-09-13T02:42:55;106174.59;;;13.85;100.00
21877;BME280;11103;43.788;23.710;2022-09-13T02:45:29;104163.34;;;13.81;100.00
21877;BME280;11103;43.788;23.710;2022-09-13T02:47:59;99150.91;;;13.76;100.00
21877;BME280;11103;43.788;23.710;2022-09-13T02:53:51;96481.50;;;13.74;100.00
21877;BME280;11103;43.788;23.710;2022-09-13T02:56:33;95147.63;;;13.73;100.00
21877;BME280;11103;43.788;23.710;2022-09-13T02:59:14;96471.53;;;13.68;100.00
21877;BME280;11103;43.788;23.710;2022-09-13T03:01:44;96475.69;;;13.70;100.00
21877;BME280;11103;43.788;23.710;2022-09-13T03:04:11;96131.03;;;13.63;100.00
21877;BME280;11103;43.788;23.710;2022-09-13T03:06:38;96143.44;;;13.71;100.00
21877;BME280;11103;43.788;23.710;2022-09-13T03:09:05;96794.66;;;13.62;100.00
21877;BME280;11103;43.788;23.710;2022-09-13T03:15:51;96474.84;;;13.70;100.00
21877;BME280;11103;43.788;23.710;2022-09-13T03:29:20;88474.47;;;13.60;100.00
21877;BME280;11103;43.788;23.710;2022-09-13T03:39:44;85815.06;;;13.58;100.00
21877;BME280;11103;43.788;23.710;2022-09-13T03:42:23;89469.13;;;13.58;100.00
21877;BME280;11103;43.788;23.710;2022-09-13T03:44:51;87800.13;;;13.53;100.00
21877;BME280;11103;43.788;23.710;2022-09-13T03:47:20;89467.56;;;13.57;100.00
21877;BME280;11103;43.788;23.710;2022-09-13T03:49:47;89466.81;;;13.57;100.00
21877;BME280;11103;43.788;23.710;2022-09-13T03:52:14;90457.78;;;13.53;100.00
21877;BME280;11103;43.788;23.710;2022-09-13T03:54:40;86804.50;;;13.54;100.00
21877;BME280;11103;43.788;23.710;2022-09-13T03:59:39;84783.34;;;13.34;100.00
21877;BME280;11103;43.788;23.710;2022-09-13T04:02:06;81816.97;;;13.47;100.00
21877;BME280;11103;43.788;23.710;2022-09-13T04:04:36;77495.28;;;13.36;100.00
21877;BME280;11103;43.788;23.710;2022-09-13T04:07:02;75181.69;;;13.39;100.00
21877;BME280;11103;43.788;23.710;2022-09-13T04:09:31;74518.69;;;13.38;100.00
21877;BME280;11103;43.788;23.710;2022-09-13T04:11:57;72519.94;;;13.26;100.00
21877;BME280;11103;43.788;23.710;2022-09-13T04:14:22;71197.38;;;13.26;100.00
21877;BME280;11103;43.788;23.710;2022-09-13T04:16:51;68870.22;;;13.13;100.00
21877;BME280;11103;43.788;23.710;2022-09-13T04:19:17;64581.75;;;13.13;100.00
21877;BME280;11103;43.788;23.710;2022-09-13T04:21:42;62942.28;;;13.22;100.00
21877;BME280;11103;43.788;23.710;2022-09-13T04:24:08;63273.03;;;13.23;100.00
21877;BME280;11103;43.788;23.710;2022-09-13T04:26:33;63266.97;;;13.17;100.00
21877;BME280;11103;43.788;23.710;2022-09-13T04:28:59;61616.06;;;13.14;100.00
21877;BME280;11103;43.788;23.710;2022-09-13T04:31:25;59962.47;;;13.07;100.00
21877;BME280;11103;43.788;23.710;2022-09-13T04:33:50;60972.69;;;13.29;100.00
21877;BME280;11103;43.788;23.710;2022-09-13T04:36:16;58663.19;;;13.25;100.00
21877;BME280;11103;43.788;23.710;2022-09-13T04:38:41;58996.03;;;13.28;100.00
21877;BME280;11103;43.788;23.710;2022-09-13T04:41:06;54391.44;;;13.30;100.00
21877;BME280;11103;43.788;23.710;2022-09-13T04:43:34;54391.44;;;13.30;100.00
21877;BME280;11103;43.788;23.710;2022-09-13T04:46:00;56034.47;;;13.29;100.00
21877;BME280;11103;43.788;23.710;2022-09-13T04:48:26;54734.19;;;13.45;100.00
21877;BME280;11103;43.788;23.710;2022-09-13T04:50:51;55065.06;;;13.47;100.00
21877;BME280;11103;43.788;23.710;2022-09-13T04:53:17;48498.72;;;13.55;100.00
21877;BME280;11103;43.788;23.710;2022-09-13T04:55:43;45221.31;;;13.61;100.00
21877;BME280;11103;43.788;23.710;2022-09-13T04:58:08;45875.94;;;13.59;100.00
21877;BME280;11103;43.788;23.710;2022-09-13T05:00:34;47858.50;;;13.75;100.00
21877;BME280;11103;43.788;23.710;2022-09-13T05:03:00;51808.25;;;13.82;100.00
21877;BME280;11103;43.788;23.710;2022-09-13T05:05:25;50499.78;;;13.89;100.00
21877;BME280;11103;43.788;23.710;2022-09-13T05:07:53;53152.34;;;14.12;100.00
21877;BME280;11103;43.788;23.710;2022-09-13T05:10:18;61399.44;;;14.20;100.00
21877;BME280;11103;43.788;23.710;2022-09-13T05:12:43;68363.50;;;14.44;100.00
21877;BME280;11103;43.788;23.710;2022-09-13T05:15:09;76664.38;;;14.60;100.00
21877;BME280;11103;43.788;23.710;2022-09-13T05:17:36;82992.75;;;14.74;100.00
21877;BME280;11103;43.788;23.710;2022-09-13T05:20:01;100702.44;;;15.03;100.00
21877;BME280;11103;43.788;23.710;2022-09-13T05:22:27;129260.84;;;15.18;100.00
21877;BME280;11103;43.788;23.710;2022-09-13T05:24:53;125950.25;;;15.45;100.00
21877;BME280;11103;43.788;23.710;2022-09-13T05:27:18;147090.00;;;15.67;100.00
21877;BME280;11103;43.788;23.710;2022-09-13T05:29:44;150369.41;;;15.78;100.00
21877;BME280;11103;43.788;23.710;2022-09-13T05:32:09;150428.53;;;16.01;100.00
21877;BME280;11103;43.788;23.710;2022-09-13T05:34:34;150453.00;;;16.11;100.00
21877;BME280;11103;43.788;23.710;2022-09-13T05:37:00;150487.72;;;16.25;100.00
21877;BME280;11103;43.788;23.710;2022-09-13T05:39:25;150557.19;;;16.52;100.00
21877;BME280;11103;43.788;23.710;2022-09-13T05:41:51;150622.81;;;16.78;100.00
21877;BME280;11103;43.788;23.710;2022-09-13T05:44:16;150662.69;;;16.93;100.00
21877;BME280;11103;43.788;23.710;2022-09-13T05:46:41;150721.91;;;17.16;100.00
21877;BME280;11103;43.788;23.710;2022-09-13T05:49:11;150769.53;;;17.35;100.00
21877;BME280;11103;43.788;23.710;2022-09-13T05:51:38;150912.47;;;17.91;100.00
21877;BME280;11103;43.788;23.710;2022-09-13T05:54:03;151011.66;;;18.30;100.00
21877;BME280;11103;43.788;23.710;2022-09-13T05:56:29;151068.41;;;18.52;100.00
21877;BME280;11103;43.788;23.710;2022-09-13T05:58:56;151135.41;;;18.78;100.00
21877;BME280;11103;43.788;23.710;2022-09-13T06:01:24;151152.19;;;18.85;100.00
21877;BME280;11103;43.788;23.710;2022-09-13T06:03:52;151217.88;;;19.11;100.00
21877;BME280;11103;43.788;23.710;2022-09-13T06:06:17;151215.34;;;19.10;100.00
21877;BME280;11103;43.788;23.710;2022-09-13T06:08:44;151148.28;;;18.83;100.00
21877;BME280;11103;43.788;23.710;2022-09-13T06:11:11;151199.84;;;19.03;100.00
21877;BME280;11103;43.788;23.710;2022-09-13T06:13:38;151185.69;;;18.98;100.00
21877;BME280;11103;43.788;23.710;2022-09-13T06:16:05;151177.94;;;18.95;100.00
21877;BME280;11103;43.788;23.710;2022-09-13T06:18:32;151199.84;;;19.03;100.00
21877;BME280;11103;43.788;23.710;2022-09-13T06:21:03;151194.72;;;19.01;100.00
21877;BME280;11103;43.788;23.710;2022-09-13T06:23:30;151235.97;;;19.18;100.00
21877;BME280;11103;43.788;23.710;2022-09-13T06:26:07;151184.38;;;18.97;100.00
21877;BME280;11103;43.788;23.710;2022-09-13T06:28:33;151275.91;;;19.33;100.00
21877;BME280;11103;43.788;23.710;2022-09-13T06:31:12;151287.56;;;19.38;100.00
21877;BME280;11103;43.788;23.710;2022-09-13T06:34:15;151301.75;;;19.43;100.00
21877;BME280;11103;43.788;23.710;2022-09-13T06:36:42;151317.22;;;19.49;100.00
21877;BME280;11103;43.788;23.710;2022-09-13T06:39:07;151326.25;;;19.53;100.00
21877;BME280;11103;43.788;23.710;2022-09-13T06:41:32;151327.56;;;19.53;100.00
21877;BME280;11103;43.788;23.710;2022-09-13T06:43:59;151344.28;;;19.60;100.00
21877;BME280;11103;43.788;23.710;2022-09-13T06:46:27;151340.44;;;19.58;100.00
21877;BME280;11103;43.788;23.710;2022-09-13T06:48:53;151324.97;;;19.52;100.00
21877;BME280;11103;43.788;23.710;2022-09-13T06:51:21;151385.56;;;19.76;100.00
21877;BME280;11103;43.788;23.710;2022-09-13T06:53:48;151380.41;;;19.74;100.00
21877;BME280;11103;43.788;23.710;2022-09-13T06:56:17;151421.69;;;19.90;100.00
21877;BME280;11103;43.788;23.710;2022-09-13T06:58:44;151444.94;;;19.99;100.00
21877;BME280;11103;43.788;23.710;2022-09-13T07:01:22;151486.19;;;20.15;100.00
21877;BME280;11103;43.788;23.710;2022-09-13T07:03:50;151490.03;;;20.17;100.00
21877;BME280;11103;43.788;23.710;2022-09-13T07:06:27;151523.63;;;20.30;100.00
21877;BME280;11103;43.788;23.710;2022-09-13T07:08:53;151499.09;;;20.20;93.79
21877;BME280;11103;43.788;23.710;2022-09-13T07:11:21;151535.28;;;20.35;96.75
21877;BME280;11103;43.788;23.710;2022-09-13T07:13:51;151553.31;;;20.42;97.96
21877;BME280;11103;43.788;23.710;2022-09-13T07:16:18;151558.47;;;20.44;99.68
21877;BME280;11103;43.788;23.710;2022-09-13T07:18:59;151581.72;;;20.53;95.22
21877;BME280;11103;43.788;23.710;2022-09-13T07:21:25;151607.53;;;20.63;96.54
21877;BME280;11103;43.788;23.710;2022-09-13T07:23:52;151620.47;;;20.68;96.54
21877;BME280;11103;43.788;23.710;2022-09-13T07:26:18;151634.66;;;20.73;93.30
21877;BME280;11103;43.788;23.710;2022-09-13T07:28:46;151635.91;;;20.74;93.96
21877;BME280;11103;43.788;23.710;2022-09-13T07:31:21;151638.53;;;20.75;92.38
21877;BME280;11103;43.788;23.710;2022-09-13T07:33:52;151678.53;;;20.91;90.64
21877;BME280;11103;43.788;23.710;2022-09-13T07:36:17;151679.81;;;20.91;90.41
21877;BME280;11103;43.788;23.710;2022-09-13T07:38:43;151692.72;;;20.96;89.23
21877;BME280;11103;43.788;23.710;2022-09-13T07:41:14;151695.31;;;20.97;91.96
21877;BME280;11103;43.788;23.710;2022-09-13T07:43:40;151721.19;;;21.07;92.67
21877;BME280;11103;43.788;23.710;2022-09-13T07:46:08;151743.13;;;21.16;91.21
21877;BME280;11103;43.788;23.710;2022-09-13T07:48:36;151746.97;;;21.17;87.90
21877;BME280;11103;43.788;23.710;2022-09-13T07:51:05;151776.69;;;21.29;87.36
21877;BME280;11103;43.788;23.710;2022-09-13T07:53:32;151780.59;;;21.30;85.51
21877;BME280;11103;43.788;23.710;2022-09-13T07:56:11;151790.91;;;21.34;83.50
21877;BME280;11103;43.788;23.710;2022-09-13T07:58:38;151794.81;;;21.36;83.38
21877;BME280;11103;43.788;23.710;2022-09-13T08:01:34;151793.50;;;21.35;85.04
21877;BME280;11103;43.788;23.710;2022-09-13T08:04:02;151842.56;;;21.55;81.60
21877;BME280;11103;43.788;23.710;2022-09-13T08:06:30;151850.34;;;21.58;81.68
21877;BME280;11103;43.788;23.710;2022-09-13T08:08:56;151860.63;;;21.62;82.02
21877;BME280;11103;43.788;23.710;2022-09-13T08:11:24;151933.03;;;21.90;80.02
21877;BME280;11103;43.788;23.710;2022-09-13T08:13:51;151898.13;;;21.76;79.84
21877;BME280;11103;43.788;23.710;2022-09-13T08:16:20;151925.28;;;21.87;79.38
21877;BME280;11103;43.788;23.710;2022-09-13T08:18:47;151909.72;;;21.81;80.31
21877;BME280;11103;43.788;23.710;2022-09-13T08:21:13;151943.34;;;21.94;79.66
21877;BME280;11103;43.788;23.710;2022-09-13T08:23:39;151943.34;;;21.94;79.98
21877;BME280;11103;43.788;23.710;2022-09-13T08:26:06;151953.72;;;21.98;77.62
21877;BME280;11103;43.788;23.710;2022-09-13T08:28:36;151979.53;;;22.08;76.77
21877;BME280;11103;43.788;23.710;2022-09-13T08:31:13;151978.25;;;22.08;79.22
21877;BME280;11103;43.788;23.710;2022-09-13T08:33:45;152022.19;;;22.25;80.33
21877;BME280;11103;43.788;23.710;2022-09-13T08:36:11;152058.38;;;22.39;77.86
21877;BME280;11103;43.788;23.710;2022-09-13T08:38:37;152062.25;;;22.40;73.04
21877;BME280;11103;43.788;23.710;2022-09-13T08:41:12;152088.06;;;22.50;74.31
21877;BME280;11103;43.788;23.710;2022-09-13T08:44:31;152113.97;;;22.61;69.40
21877;BME280;11103;43.788;23.710;2022-09-13T08:46:40;152112.66;;;22.60;70.52
21877;BME280;11103;43.788;23.710;2022-09-13T08:51:50;152165.69;;;22.81;70.49
21877;BME280;11103;43.788;23.710;2022-09-13T08:54:18;152172.16;;;22.83;69.33
21877;BME280;11103;43.788;23.710;2022-09-13T08:57:07;152181.22;;;22.87;68.15
21877;BME280;11103;43.788;23.710;2022-09-13T09:04:57;152249.72;;;23.13;66.99
21877;BME280;11103;43.788;23.710;2022-09-13T09:07:38;152297.56;;;23.32;69.92
21877;BME280;11103;43.788;23.710;2022-09-13T09:10:13;152324.78;;;23.43;63.63
21877;BME280;11103;43.788;23.710;2022-09-13T09:13:12;152307.94;;;23.36;63.74
21877;BME280;11103;43.788;23.710;2022-09-13T09:15:44;152306.63;;;23.36;64.50
21877;BME280;11103;43.788;23.710;2022-09-13T09:18:12;152348.06;;;23.52;61.21
21877;BME280;11103;43.788;23.710;2022-09-13T09:20:44;152350.69;;;23.53;61.84
21877;BME280;11103;43.788;23.710;2022-09-13T09:23:17;152373.94;;;23.62;61.37
21877;BME280;11103;43.788;23.710;2022-09-13T09:25:43;152394.63;;;23.70;60.42
21877;BME280;11103;43.788;23.710;2022-09-13T09:28:12;152417.94;;;23.79;59.01
21877;BME280;11103;43.788;23.710;2022-09-13T09:30:48;152449.00;;;23.91;57.92
21877;BME280;11103;43.788;23.710;2022-09-13T09:33:49;152469.69;;;23.99;55.67
21877;BME280;11103;43.788;23.710;2022-09-13T09:36:27;152465.78;;;23.98;52.85
21877;BME280;11103;43.788;23.710;2022-09-13T09:38:57;152489.09;;;24.07;54.21
21877;BME280;11103;43.788;23.710;2022-09-13T09:41:26;152504.69;;;24.13;50.63
21877;BME280;11103;43.788;23.710;2022-09-13T09:43:59;152511.16;;;24.15;50.25
21877;BME280;11103;43.788;23.710;2022-09-13T09:46:30;152508.56;;;24.14;52.73
21877;BME280;11103;43.788;23.710;2022-09-13T09:49:04;152540.88;;;24.27;53.93
21877;BME280;11103;43.788;23.710;2022-09-13T09:51:52;152535.72;;;24.25;51.77
21877;BME280;11103;43.788;23.710;2022-09-13T09:54:18;152568.09;;;24.38;50.51
21877;BME280;11103;43.788;23.710;2022-09-13T09:56:52;152574.59;;;24.40;54.84
21877;BME280;11103;43.788;23.710;2022-09-13T09:59:25;152621.16;;;24.58;51.70
21877;BME280;11103;43.788;23.710;2022-09-13T10:01:51;152600.44;;;24.50;52.45
21877;BME280;11103;43.788;23.710;2022-09-13T10:04:20;152657.41;;;24.72;51.06
21877;BME280;11103;43.788;23.710;2022-09-13T10:06:47;152709.22;;;24.93;48.28
21877;BME280;11103;43.788;23.710;2022-09-13T10:09:14;152722.16;;;24.98;52.53
21877;BME280;11103;43.788;23.710;2022-09-13T10:11:52;152775.28;;;25.18;46.87
21877;BME280;11103;43.788;23.710;2022-09-13T10:14:44;152776.59;;;25.19;45.39
21877;BME280;11103;43.788;23.710;2022-09-13T10:17:25;152763.66;;;25.14;47.48
21877;BME280;11103;43.788;23.710;2022-09-13T10:19:58;152733.84;;;25.02;48.46
21877;BME280;11103;43.788;23.710;2022-09-13T10:22:27;152700.19;;;24.89;46.09
21877;BME280;11103;43.788;23.710;2022-09-13T10:24:53;152697.59;;;24.88;46.78
21877;BME280;11103;43.788;23.710;2022-09-13T10:27:40;152732.56;;;25.02;48.12
21877;BME280;11103;43.788;23.710;2022-09-13T10:30:31;152709.22;;;24.93;46.02
21877;BME280;11103;43.788;23.710;2022-09-13T10:32:59;152715.69;;;24.95;51.18
21877;BME280;11103;43.788;23.710;2022-09-13T10:35:26;152732.56;;;25.02;46.23
21877;BME280;11103;43.788;23.710;2022-09-13T10:37:51;152723.47;;;24.98;46.94
21877;BME280;11103;43.788;23.710;2022-09-13T10:40:27;152745.50;;;25.07;46.38
21877;BME280;11103;43.788;23.710;2022-09-13T10:42:56;152759.75;;;25.12;49.41
21877;BME280;11103;43.788;23.710;2022-09-13T10:45:24;152745.50;;;25.07;48.91
21877;BME280;11103;43.788;23.710;2022-09-13T10:47:53;152761.03;;;25.13;51.73
21877;BME280;11103;43.788;23.710;2022-09-13T10:50:27;152786.94;;;25.23;46.34
21877;BME280;11103;43.788;23.710;2022-09-13T10:52:56;152761.03;;;25.13;49.12
21877;BME280;11103;43.788;23.710;2022-09-13T10:58:14;152864.72;;;25.53;45.66
21877;BME280;11103;43.788;23.710;2022-09-13T11:14:15;152991.69;;;26.02;41.66
21877;BME280;11103;43.788;23.710;2022-09-13T11:17:06;153007.25;;;26.09;43.21
21877;BME280;11103;43.788;23.710;2022-09-13T11:30:40;153121.31;;;26.53;47.17
21877;BME280;11103;43.788;23.710;2022-09-13T11:35:53;153165.41;;;26.70;42.17
21877;BME280;11103;43.788;23.710;2022-09-13T11:38:44;153168.03;;;26.71;44.41
21877;BME280;11103;43.788;23.710;2022-09-13T11:44:27;153155.06;;;26.66;42.91
21877;BME280;11103;43.788;23.710;2022-09-13T11:50:05;153165.41;;;26.70;39.35
21877;BME280;11103;43.788;23.710;2022-09-13T11:52:51;153121.31;;;26.53;41.29
21877;BME280;11103;43.788;23.710;2022-09-13T11:55:41;153129.09;;;26.56;41.34
21877;BME280;11103;43.788;23.710;2022-09-13T11:58:20;153101.88;;;26.45;40.94
21877;BME280;11103;43.788;23.710;2022-09-13T12:00:50;153090.25;;;26.41;42.09
21877;BME280;11103;43.788;23.710;2022-09-13T12:03:30;153126.53;;;26.55;41.43
21877;BME280;11103;43.788;23.710;2022-09-13T12:08:50;153158.94;;;26.68;38.99
21877;BME280;11103;43.788;23.710;2022-09-13T12:11:26;153162.81;;;26.69;38.18
21877;BME280;11103;43.788;23.710;2022-09-13T12:14:00;153117.47;;;26.51;40.96
21877;BME280;11103;43.788;23.710;2022-09-13T12:18:57;153157.63;;;26.67;38.60
21877;BME280;11103;43.788;23.710;2022-09-13T12:21:38;153144.69;;;26.62;38.92
21877;BME280;11103;43.788;23.710;2022-09-13T12:24:15;153136.91;;;26.59;40.73
21877;BME280;11103;43.788;23.710;2022-09-13T12:29:36;153142.06;;;26.61;40.46
21877;BME280;11103;43.788;23.710;2022-09-13T12:32:06;153188.81;;;26.79;38.80
21877;BME280;11103;43.788;23.710;2022-09-13T12:43:44;153232.88;;;26.96;36.60
21877;BME280;11103;43.788;23.710;2022-09-13T14:12:09;153997.72;;;29.93;30.63
21877;BME280;11103;43.788;23.710;2022-09-13T14:14:59;154043.22;;;30.11;30.55
21877;BME280;11103;43.788;23.710;2022-09-13T14:20:12;154082.19;;;30.26;30.44
21877;BME280;11103;43.788;23.710;2022-09-13T14:22:40;154040.63;;;30.10;31.35
21877;BME280;11103;43.788;23.710;2022-09-13T14:25:31;154014.63;;;30.00;31.90
21877;BME280;11103;43.788;23.710;2022-09-13T14:27:58;153953.47;;;29.76;32.46
21877;BME280;11103;43.788;23.710;2022-09-13T14:30:45;154062.72;;;30.19;32.32
21877;BME280;11103;43.788;23.710;2022-09-13T14:33:31;154134.25;;;30.46;30.88
21877;BME280;11103;43.788;23.710;2022-09-13T14:36:11;154149.81;;;30.52;30.20
21877;BME280;11103;43.788;23.710;2022-09-13T14:38:52;154131.63;;;30.45;29.59
21877;BME280;11103;43.788;23.710;2022-09-13T14:41:20;154147.25;;;30.51;30.23
21877;BME280;11103;43.788;23.710;2022-09-13T14:43:47;154064.03;;;30.19;30.61
21877;BME280;11103;43.788;23.710;2022-09-13T14:48:45;153934.00;;;29.69;31.88
21877;BME280;11103;43.788;23.710;2022-09-13T14:53:41;153770.31;;;29.05;32.04
21877;BME280;11103;43.788;23.710;2022-09-13T14:56:15;153718.34;;;28.85;33.02
21877;BME280;11103;43.788;23.710;2022-09-13T14:58:54;153641.69;;;28.55;33.17
21877;BME280;11103;43.788;23.710;2022-09-13T15:01:40;153570.28;;;28.27;33.21
21877;BME280;11103;43.788;23.710;2022-09-13T15:04:06;153532.69;;;28.13;33.62
21877;BME280;11103;43.788;23.710;2022-09-13T15:06:39;153458.66;;;27.84;33.94
21877;BME280;11103;43.788;23.710;2022-09-13T15:14:36;153566.44;;;28.26;34.23
21877;BME280;11103;43.788;23.710;2022-09-13T15:19:49;153684.59;;;28.72;33.65
21877;BME280;11103;43.788;23.710;2022-09-13T15:22:28;153710.56;;;28.82;33.58
21877;BME280;11103;43.788;23.710;2022-09-13T15:24:56;153857.34;;;29.39;32.67
21877;BME280;11103;43.788;23.710;2022-09-13T15:27:31;153871.66;;;29.44;31.99
21877;BME280;11103;43.788;23.710;2022-09-13T15:30:03;153835.25;;;29.30;33.56
21877;BME280;11103;43.788;23.710;2022-09-13T15:32:39;153750.78;;;28.98;34.09
21877;BME280;11103;43.788;23.710;2022-09-13T15:35:34;153891.13;;;29.52;31.55
21877;BME280;11103;43.788;23.710;2022-09-13T15:38:13;153841.75;;;29.33;32.38
21877;BME280;11103;43.788;23.710;2022-09-13T15:40:42;153822.28;;;29.25;31.61
21877;BME280;11103;43.788;23.710;2022-09-13T15:43:08;153813.19;;;29.22;32.16
21877;BME280;11103;43.788;23.710;2022-09-13T15:45:33;153741.75;;;28.94;32.25
21877;BME280;11103;43.788;23.710;2022-09-13T15:47:58;153659.91;;;28.62;32.81
21877;BME280;11103;43.788;23.710;2022-09-13T15:50:28;153600.16;;;28.39;33.20
21877;BME280;11103;43.788;23.710;2022-09-13T15:52:57;153441.81;;;27.77;33.98
21877;BME280;11103;43.788;23.710;2022-09-13T15:55:23;153292.56;;;27.19;35.34
21877;BME280;11103;43.788;23.710;2022-09-13T15:57:49;153197.88;;;26.83;36.04
21877;BME280;11103;43.788;23.710;2022-09-13T16:00:17;153170.59;;;26.72;35.50
21877;BME280;11103;43.788;23.710;2022-09-13T16:02:43;153020.25;;;26.14;36.56
21877;BME280;11103;43.788;23.710;2022-09-13T16:05:09;152890.59;;;25.63;37.83
21877;BME280;11103;43.788;23.710;2022-09-13T16:07:36;152740.31;;;25.05;38.32
21877;BME280;11103;43.788;23.710;2022-09-13T16:10:03;152621.16;;;24.58;39.07
21877;BME280;11103;43.788;23.710;2022-09-13T16:12:29;152482.63;;;24.04;40.09
21877;BME280;11103;43.788;23.710;2022-09-13T16:14:54;152373.94;;;23.62;41.47
21877;BME280;11103;43.788;23.710;2022-09-13T16:17:24;152282.09;;;23.26;42.16
21877;BME280;11103;43.788;23.710;2022-09-13T16:19:51;152223.88;;;23.03;42.67
21877;BME280;11103;43.788;23.710;2022-09-13T16:22:16;152137.25;;;22.70;43.79
21877;BME280;11103;43.788;23.710;2022-09-13T16:24:42;152077.75;;;22.46;44.15
21877;BME280;11103;43.788;23.710;2022-09-13T16:27:12;152023.50;;;22.25;44.50
21877;BME280;11103;43.788;23.710;2022-09-13T16:29:38;151982.16;;;22.09;44.86
21877;BME280;11103;43.788;23.710;2022-09-13T16:32:04;151938.19;;;21.92;45.54
21877;BME280;11103;43.788;23.710;2022-09-13T16:34:30;151909.72;;;21.81;45.75
21877;BME280;11103;43.788;23.710;2022-09-13T16:36:55;151880.00;;;21.69;46.16
21877;BME280;11103;43.788;23.710;2022-09-13T16:39:21;151829.66;;;21.50;46.91
21877;BME280;11103;43.788;23.710;2022-09-13T16:41:46;151807.72;;;21.41;47.84
21877;BME280;11103;43.788;23.710;2022-09-13T16:44:12;151790.91;;;21.34;48.30
21877;BME280;11103;43.788;23.710;2022-09-13T16:46:38;151778.00;;;21.29;48.41